createdAt,value
2022-11-01T00:02:56.125Z,93.50
2022-11-01T00:07:59.658Z,93.57
2022-11-01T00:13:03.387Z,93.54
2022-11-01T00:18:06.986Z,93.68
2022-11-01T00:23:10.107Z,93.51
2022-11-01T00:28:13.709Z,93.32
2022-11-01T00:33:16.919Z,93.33
2022-11-01T00:38:20.530Z,93.43
2022-11-01T00:43:23.741Z,93.49
2022-11-01T00:48:27.048Z,93.47
2022-11-01T00:53:30.260Z,93.43
2022-11-01T00:58:33.979Z,93.42
2022-11-01T01:03:37.289Z,93.33
2022-11-01T01:08:40.500Z,93.42
2022-11-01T01:13:43.910Z,93.53
2022-11-01T01:18:47.221Z,93.15
2022-11-01T01:23:51.765Z,93.11
2022-11-01T01:28:55.687Z,93.35
2022-11-01T01:33:58.999Z,93.36
2022-11-01T01:39:02.410Z,93.19
2022-11-01T01:44:47.807Z,93.13
2022-11-01T01:49:55.934Z,93.22
2022-11-01T01:55:03.240Z,93.36
2022-11-01T02:00:07.137Z,93.46
2022-11-01T02:05:25.221Z,93.56
2022-11-01T02:10:30.505Z,93.66
2022-11-01T02:15:45.050Z,93.68
2022-11-01T02:21:16.314Z,93.80
2022-11-01T02:26:41.130Z,93.69
2022-11-01T02:32:02.770Z,93.76
2022-11-01T02:37:12.021Z,93.81
2022-11-01T02:42:31.818Z,93.89
2022-11-01T02:47:35.721Z,93.89
2022-11-01T02:52:41.340Z,93.63
2022-11-01T02:57:44.618Z,93.64
2022-11-01T03:02:52.536Z,93.61
2022-11-01T03:08:04.064Z,93.63
2022-11-01T03:13:22.788Z,93.48
2022-11-01T03:18:33.525Z,93.45
2022-11-01T03:23:43.852Z,93.62
2022-11-01T03:28:52.264Z,93.62
2022-11-01T03:34:03.296Z,93.53
2022-11-01T03:39:12.338Z,93.88
2022-11-01T03:44:16.902Z,93.52
2022-11-01T03:49:20.498Z,93.63
2022-11-01T03:54:23.705Z,93.58
2022-11-01T03:59:27.016Z,93.40
2022-11-01T04:04:30.224Z,93.61
2022-11-01T04:09:33.436Z,93.60
2022-11-01T04:14:59.783Z,93.36
2022-11-01T04:20:21.936Z,93.28
2022-11-01T04:25:25.355Z,93.43
2022-11-01T04:30:29.885Z,93.31
2022-11-01T04:35:33.205Z,93.43
2022-11-01T04:40:36.511Z,93.21
2022-11-01T04:45:40.473Z,93.07
2022-11-01T04:50:43.697Z,92.58
2022-11-01T04:55:46.854Z,92.62
2022-11-01T05:00:50.116Z,92.78
2022-11-01T05:05:53.474Z,92.98
2022-11-01T05:10:57.192Z,93.24
2022-11-01T05:16:18.943Z,93.25
2022-11-01T05:21:22.964Z,93.25
2022-11-01T05:26:28.023Z,93.33
2022-11-01T05:31:31.349Z,93.28
2022-11-01T05:36:34.639Z,93.37
2022-11-01T05:41:38.154Z,93.51
2022-11-01T05:46:41.262Z,93.48
2022-11-01T05:51:44.468Z,93.99
2022-11-01T05:56:47.781Z,93.69
2022-11-01T06:01:52.553Z,93.65
2022-11-01T06:06:55.939Z,93.66
2022-11-01T06:11:59.919Z,93.57
2022-11-01T06:17:03.175Z,93.93
2022-11-01T06:22:06.484Z,93.87
2022-11-01T06:27:12.498Z,93.85
2022-11-01T06:32:16.176Z,93.79
2022-11-01T06:37:19.488Z,93.59
2022-11-01T06:42:22.700Z,93.65
2022-11-01T06:47:28.593Z,93.32
2022-11-01T06:52:31.987Z,93.24
2022-11-01T06:57:35.190Z,93.31
2022-11-01T07:02:38.557Z,93.50
2022-11-01T07:07:42.427Z,93.19
2022-11-01T07:12:45.637Z,93.24
2022-11-01T07:17:48.850Z,93.40
2022-11-01T07:23:00.286Z,93.45
2022-11-01T07:28:04.265Z,93.45
2022-11-01T07:33:07.992Z,93.07
2022-11-01T07:38:13.156Z,93.29
2022-11-01T07:43:18.262Z,93.16
2022-11-01T07:48:21.822Z,93.15
2022-11-01T07:53:26.704Z,92.94
2022-11-01T07:58:34.785Z,92.94
2022-11-01T08:03:38.098Z,93.07
2022-11-01T08:08:41.511Z,93.12
2022-11-01T08:13:45.025Z,92.67
2022-11-01T08:18:48.437Z,93.01
2022-11-01T08:23:51.647Z,92.99
2022-11-01T08:28:54.857Z,93.11
2022-11-01T08:33:58.063Z,92.55
2022-11-01T08:39:01.950Z,92.81
2022-11-01T08:44:06.222Z,92.36
2022-11-01T08:49:13.424Z,92.41
2022-11-01T08:54:16.638Z,92.17
2022-11-01T08:59:19.942Z,92.58
2022-11-01T09:04:23.253Z,92.86
2022-11-01T09:09:26.665Z,93.02
2022-11-01T09:14:29.979Z,92.30
2022-11-01T09:19:33.107Z,92.21
2022-11-01T09:24:36.497Z,91.86
2022-11-01T09:29:39.726Z,91.41
2022-11-01T09:34:43.023Z,91.66
2022-11-01T09:39:46.224Z,92.03
2022-11-01T09:44:54.173Z,92.07
2022-11-01T09:50:40.877Z,92.21
2022-11-01T09:55:51.453Z,92.06
2022-11-01T10:01:12.774Z,92.04
2022-11-01T10:06:28.389Z,91.58
2022-11-01T10:11:35.623Z,91.66
2022-11-01T10:16:44.387Z,91.81
2022-11-01T10:21:56.851Z,91.71
2022-11-01T10:27:22.075Z,91.37
2022-11-01T10:32:35.409Z,91.33
2022-11-01T10:38:19.344Z,91.21
2022-11-01T10:43:27.413Z,91.41
2022-11-01T10:48:39.115Z,91.23
2022-11-01T10:53:48.879Z,90.83
2022-11-01T10:59:03.147Z,90.47
2022-11-01T11:04:11.266Z,90.72
2022-11-01T11:09:35.063Z,90.62
2022-11-01T11:14:40.624Z,90.42
2022-11-01T11:19:47.014Z,90.43
2022-11-01T11:24:53.097Z,89.75
2022-11-01T11:29:59.464Z,89.74
2022-11-01T11:35:09.184Z,89.60
2022-11-01T11:40:41.618Z,89.51
2022-11-01T11:45:58.140Z,89.35
2022-11-01T11:51:06.621Z,89.22
2022-11-01T11:56:12.143Z,89.30
2022-11-01T12:01:22.014Z,89.06
2022-11-01T12:06:30.225Z,88.94
2022-11-01T12:11:46.644Z,88.94
2022-11-01T12:16:50.565Z,89.03
2022-11-01T12:21:57.362Z,88.66
2022-11-01T12:27:05.213Z,88.41
2022-11-01T12:32:21.899Z,88.54
2022-11-01T12:37:34.530Z,88.45
2022-11-01T12:42:43.780Z,88.86
2022-11-01T12:47:52.834Z,88.69
2022-11-01T12:53:41.505Z,88.73
2022-11-01T12:58:45.124Z,88.82
2022-11-01T13:04:13.519Z,88.40
2022-11-01T13:09:19.395Z,88.65
2022-11-01T13:14:46.724Z,88.77
2022-11-01T13:20:18.541Z,88.71
2022-11-01T13:25:47.963Z,88.73
2022-11-01T13:31:33.669Z,88.74
2022-11-01T13:37:04.628Z,88.39
2022-11-01T13:42:16.384Z,88.31
2022-11-01T13:47:52.830Z,88.24
2022-11-01T13:53:04.839Z,88.35
2022-11-01T13:58:08.560Z,88.31
2022-11-01T14:03:25.899Z,88.45
2022-11-01T14:08:49.689Z,88.20
2022-11-01T14:13:53.000Z,88.56
2022-11-01T14:19:20.285Z,88.49
2022-11-01T14:24:34.857Z,88.13
2022-11-01T14:29:39.184Z,88.37
2022-11-01T14:34:45.672Z,88.43
2022-11-01T14:40:02.187Z,88.37
2022-11-01T14:45:25.057Z,88.17
2022-11-01T14:50:43.833Z,88.38
2022-11-01T14:55:47.141Z,88.38
2022-11-01T15:00:54.937Z,88.49
2022-11-01T15:05:58.473Z,88.44
2022-11-01T15:11:03.562Z,88.44
2022-11-01T15:16:15.954Z,88.47
2022-11-01T15:21:25.539Z,88.25
2022-11-01T15:26:33.734Z,88.35
2022-11-01T15:31:50.407Z,88.33
2022-11-01T15:36:54.486Z,88.64
2022-11-01T15:41:58.212Z,88.70
2022-11-01T15:47:03.880Z,88.96
2022-11-01T15:52:18.140Z,89.08
2022-11-01T15:57:28.618Z,89.35
2022-11-01T16:02:40.533Z,89.21
2022-11-01T16:07:45.172Z,89.13
2022-11-01T16:12:49.516Z,89.24
2022-11-01T16:17:55.839Z,89.31
2022-11-01T16:23:12.718Z,89.27
2022-11-01T16:28:16.030Z,89.43
2022-11-01T16:33:19.135Z,89.25
2022-11-01T16:38:22.550Z,89.49
2022-11-01T16:43:28.130Z,89.41
2022-11-01T16:48:34.521Z,89.67
2022-11-01T16:53:37.704Z,89.67
2022-11-01T16:58:41.117Z,89.75
2022-11-01T17:03:44.426Z,89.91
2022-11-01T17:08:47.943Z,89.93
2022-11-01T17:13:51.253Z,89.85
2022-11-01T17:18:57.702Z,90.09
2022-11-01T17:24:01.049Z,90.32
2022-11-01T17:29:04.260Z,90.50
2022-11-01T17:34:07.466Z,90.51
2022-11-01T17:39:11.500Z,90.68
2022-11-01T17:44:15.010Z,90.65
2022-11-01T17:49:21.765Z,90.91
2022-11-01T17:59:29.159Z,91.08
2022-11-01T18:04:35.643Z,91.30
2022-11-01T18:09:40.186Z,91.16
2022-11-01T18:15:03.452Z,91.31
2022-11-01T18:20:46.621Z,91.64
2022-11-01T18:25:51.669Z,91.90
2022-11-01T18:30:57.761Z,91.92
2022-11-01T18:36:10.961Z,92.40
2022-11-01T18:41:20.010Z,92.90
2022-11-01T18:46:27.344Z,92.75
2022-11-01T18:51:35.241Z,93.24
2022-11-01T18:56:41.361Z,93.40
2022-11-01T19:01:45.215Z,93.19
2022-11-01T19:06:49.926Z,93.39
2022-11-01T19:12:00.508Z,93.63
2022-11-01T19:17:04.772Z,93.64
2022-11-01T19:22:24.827Z,93.94
2022-11-01T19:27:30.155Z,94.19
2022-11-01T19:32:34.848Z,94.06
2022-11-01T19:37:41.268Z,94.53
2022-11-01T19:42:45.562Z,94.72
2022-11-01T19:47:51.723Z,94.82
2022-11-01T19:52:59.446Z,95.06
2022-11-01T19:58:27.358Z,95.10
2022-11-01T20:03:43.857Z,95.48
2022-11-01T20:08:51.000Z,95.43
2022-11-01T20:13:55.094Z,95.40
2022-11-01T20:18:59.121Z,95.47
2022-11-01T20:24:04.310Z,95.76
2022-11-01T20:29:08.811Z,95.90
2022-11-01T20:34:14.468Z,95.98
2022-11-01T20:39:21.174Z,96.20
2022-11-01T20:44:27.141Z,96.03
2022-11-01T20:49:31.063Z,96.24
2022-11-01T20:54:35.102Z,96.30
2022-11-01T20:59:39.012Z,96.25
2022-11-01T21:04:42.424Z,96.45
2022-11-01T21:09:47.267Z,96.56
2022-11-01T21:14:50.473Z,96.76
2022-11-01T21:19:54.195Z,96.85
2022-11-01T21:24:58.837Z,97.00
2022-11-01T21:30:17.508Z,96.99
2022-11-01T21:35:20.930Z,97.04
2022-11-01T21:40:29.572Z,97.33
2022-11-01T21:45:33.309Z,97.34
2022-11-01T21:50:36.586Z,97.28
2022-11-01T21:55:39.797Z,97.12
2022-11-01T22:00:43.005Z,97.13
2022-11-01T22:05:46.212Z,97.21
2022-11-01T22:10:49.425Z,97.51
2022-11-01T22:15:52.837Z,97.66
2022-11-01T22:20:56.044Z,97.84
2022-11-01T22:25:59.352Z,97.92
2022-11-01T22:31:02.671Z,98.14
2022-11-01T22:36:08.402Z,98.24
2022-11-01T22:41:16.555Z,98.38
2022-11-01T22:46:28.883Z,98.49
2022-11-01T22:51:40.483Z,98.68
2022-11-01T22:56:44.821Z,98.94
2022-11-01T23:01:49.507Z,99.01
2022-11-01T23:06:52.977Z,99.15
2022-11-01T23:12:15.948Z,99.38
2022-11-01T23:17:24.071Z,99.61
2022-11-01T23:22:33.103Z,99.86
2022-11-01T23:27:36.737Z,100.00
2022-11-01T23:32:40.048Z,99.95
2022-11-01T23:37:44.183Z,100.00
2022-11-01T23:42:48.970Z,100.00
2022-11-01T23:47:52.231Z,100.00
2022-11-01T23:53:00.343Z,100.00
2022-11-01T23:58:06.842Z,100.00
